createdAt,value
2023-05-15T00:00:39.721Z,100244.59
2023-05-15T00:03:06.563Z,100243.80
2023-05-15T00:05:33.533Z,100242.70
2023-05-15T00:08:00.520Z,100242.39
2023-05-15T00:10:27.364Z,100240.88
2023-05-15T00:12:55.380Z,100245.95
2023-05-15T00:15:22.262Z,100243.77
2023-05-15T00:17:49.105Z,100244.80
2023-05-15T00:20:15.990Z,100244.02
2023-05-15T00:22:42.852Z,100245.42
2023-05-15T00:25:10.507Z,100240.80
2023-05-15T00:27:37.470Z,100243.31
2023-05-15T00:30:05.948Z,100244.02
2023-05-15T00:32:32.936Z,100248.67
2023-05-15T00:34:59.848Z,100245.30
2023-05-15T00:37:26.630Z,100242.04
2023-05-15T00:39:53.740Z,100237.11
2023-05-15T00:42:20.795Z,100237.99
2023-05-15T00:44:47.645Z,100240.36
2023-05-15T00:47:14.480Z,100240.34
2023-05-15T00:49:41.430Z,100242.56
2023-05-15T00:52:08.902Z,100239.65
2023-05-15T00:54:35.709Z,100239.38
2023-05-15T00:57:04.531Z,100232.08
2023-05-15T00:59:31.577Z,100234.02
2023-05-15T01:01:58.498Z,100233.23
2023-05-15T01:04:25.695Z,100225.46
2023-05-15T01:06:55.601Z,100227.13
2023-05-15T01:09:25.806Z,100228.55
2023-05-15T01:11:54.597Z,100222.86
2023-05-15T01:14:21.434Z,100225.20
2023-05-15T01:16:48.326Z,100226.11
2023-05-15T01:19:15.288Z,100234.30
2023-05-15T01:21:48.401Z,100235.89
2023-05-15T01:25:14.077Z,100237.92
2023-05-15T01:27:52.285Z,100238.70
2023-05-15T01:30:23.714Z,100235.54
2023-05-15T01:33:13.437Z,100233.44
2023-05-15T01:35:51.301Z,100229.23
2023-05-15T01:38:33.405Z,100228.77
2023-05-15T01:41:06.654Z,100224.81
2023-05-15T01:43:33.700Z,100225.82
2023-05-15T01:46:01.689Z,100225.16
2023-05-15T01:48:28.794Z,100225.86
2023-05-15T01:50:58.255Z,100226.73
2023-05-15T01:53:25.558Z,100228.73
2023-05-15T01:55:52.375Z,100229.49
2023-05-15T01:58:19.284Z,100229.36
2023-05-15T02:00:46.070Z,100226.14
2023-05-15T02:03:12.938Z,100228.42
2023-05-15T02:05:41.033Z,100226.91
2023-05-15T02:08:07.915Z,100228.07
2023-05-15T02:10:34.803Z,100226.36
2023-05-15T02:13:01.705Z,100226.95
2023-05-15T02:15:29.339Z,100224.96
2023-05-15T02:17:56.297Z,100224.02
2023-05-15T02:20:23.249Z,100227.17
2023-05-15T02:22:50.026Z,100225.86
2023-05-15T02:25:17.053Z,100230.49
2023-05-15T02:27:52.131Z,100231.20
2023-05-15T02:30:31.258Z,100231.92
2023-05-15T02:33:27.459Z,100229.58
2023-05-15T02:35:59.912Z,100232.55
2023-05-15T02:38:29.865Z,100230.05
2023-05-15T02:40:57.010Z,100232.45
2023-05-15T02:43:24.109Z,100231.55
2023-05-15T02:45:51.103Z,100231.36
2023-05-15T02:48:18.102Z,100220.98
2023-05-15T02:50:45.645Z,100221.20
2023-05-15T02:53:14.702Z,100216.64
2023-05-15T02:55:41.484Z,100217.42
2023-05-15T02:58:08.396Z,100218.29
2023-05-15T03:00:35.377Z,100217.55
2023-05-15T03:03:02.283Z,100218.64
2023-05-15T03:05:29.279Z,100216.27
2023-05-15T03:07:57.557Z,100212.36
2023-05-15T03:10:24.560Z,100214.34
2023-05-15T03:12:51.624Z,100212.45
2023-05-15T03:15:19.361Z,100210.06
2023-05-15T03:17:46.193Z,100209.77
2023-05-15T03:20:14.625Z,100207.29
2023-05-15T03:22:41.804Z,100214.02
2023-05-15T03:25:11.804Z,100210.11
2023-05-15T03:27:38.923Z,100214.66
2023-05-15T03:30:06.911Z,100220.70
2023-05-15T03:32:33.752Z,100218.46
2023-05-15T03:35:01.031Z,100218.29
2023-05-15T03:37:28.240Z,100217.30
2023-05-15T03:39:55.239Z,100223.04
2023-05-15T03:42:23.812Z,100219.06
2023-05-15T03:44:51.094Z,100219.40
2023-05-15T03:47:18.395Z,100220.28
2023-05-15T03:49:46.548Z,100219.95
2023-05-15T03:52:13.441Z,100215.70
2023-05-15T03:54:40.451Z,100216.44
2023-05-15T03:57:07.965Z,100214.80
2023-05-15T03:59:34.754Z,100205.04
2023-05-15T04:02:04.799Z,100205.34
2023-05-15T04:04:32.586Z,100205.36
2023-05-15T04:07:00.143Z,100207.59
2023-05-15T04:09:27.008Z,100213.41
2023-05-15T04:11:53.889Z,100211.02
2023-05-15T04:14:21.098Z,100205.88
2023-05-15T04:16:48.025Z,100205.98
2023-05-15T04:19:15.103Z,100202.91
2023-05-15T04:21:42.204Z,100205.64
2023-05-15T04:24:09.015Z,100205.04
2023-05-15T04:26:36.689Z,100199.05
2023-05-15T04:29:04.867Z,100194.09
2023-05-15T04:31:32.291Z,100190.44
2023-05-15T04:33:59.387Z,100188.50
2023-05-15T04:36:26.285Z,100182.30
2023-05-15T04:38:53.081Z,100182.13
2023-05-15T04:41:19.887Z,100181.90
2023-05-15T04:43:46.799Z,100179.55
2023-05-15T04:46:13.726Z,100177.84
2023-05-15T04:48:40.760Z,100167.11
2023-05-15T04:51:07.893Z,100163.41
2023-05-15T04:53:34.799Z,100164.39
2023-05-15T04:56:01.707Z,100163.38
2023-05-15T04:58:28.596Z,100161.63
2023-05-15T05:00:55.732Z,100159.98
2023-05-15T05:03:23.216Z,100159.36
2023-05-15T05:05:50.304Z,100157.63
2023-05-15T05:08:17.258Z,100154.35
2023-05-15T05:10:44.123Z,100157.39
2023-05-15T05:13:11.049Z,100153.91
2023-05-15T05:15:38.136Z,100154.38
2023-05-15T05:18:06.266Z,100146.59
2023-05-15T05:20:33.175Z,100142.88
2023-05-15T05:23:00.029Z,100141.27
2023-05-15T05:25:26.990Z,100141.55
2023-05-15T05:27:53.970Z,100146.45
2023-05-15T05:30:22.453Z,100144.02
2023-05-15T05:32:49.316Z,100143.95
2023-05-15T05:35:16.228Z,100140.68
2023-05-15T05:37:43.321Z,100137.59
2023-05-15T05:40:11.169Z,100137.19
2023-05-15T05:42:38.166Z,100133.89
2023-05-15T05:45:06.804Z,100129.73
2023-05-15T05:47:33.780Z,100125.20
2023-05-15T05:50:00.625Z,100126.99
2023-05-15T05:52:29.264Z,100128.75
2023-05-15T05:54:56.127Z,100121.70
2023-05-15T05:57:22.937Z,100119.68
2023-05-15T05:59:50.156Z,100119.73
2023-05-15T06:02:17.255Z,100120.10
2023-05-15T06:04:44.346Z,100119.85
2023-05-15T06:07:11.266Z,100114.56
2023-05-15T06:09:38.146Z,100114.65
2023-05-15T06:12:05.788Z,100111.70
2023-05-15T06:14:32.687Z,100112.97
2023-05-15T06:17:00.722Z,100112.70
2023-05-15T06:19:27.610Z,100113.11
2023-05-15T06:21:54.693Z,100112.99
2023-05-15T06:24:21.523Z,100103.83
2023-05-15T06:26:49.636Z,100101.64
2023-05-15T06:29:17.665Z,100105.45
2023-05-15T06:31:44.482Z,100105.36
2023-05-15T06:34:11.274Z,100101.55
2023-05-15T06:36:38.199Z,100097.92
2023-05-15T06:39:05.611Z,100092.16
2023-05-15T06:41:33.130Z,100095.78
2023-05-15T06:44:00.116Z,100087.48
2023-05-15T06:46:26.895Z,100084.42
2023-05-15T06:48:53.787Z,100083.87
2023-05-15T06:51:20.691Z,100080.12
2023-05-15T06:53:47.474Z,100083.91
2023-05-15T06:56:14.354Z,100083.11
2023-05-15T06:58:41.132Z,100080.58
2023-05-15T07:01:09.554Z,100080.22
2023-05-15T07:03:36.444Z,100076.08
2023-05-15T07:06:03.384Z,100068.93
2023-05-15T07:08:30.193Z,100069.39
2023-05-15T07:10:57.136Z,100074.31
2023-05-15T07:13:23.920Z,100071.64
2023-05-15T07:15:50.797Z,100072.35
2023-05-15T07:18:18.164Z,100070.80
2023-05-15T07:20:45.124Z,100064.90
2023-05-15T07:23:11.986Z,100065.73
2023-05-15T07:25:38.831Z,100065.14
2023-05-15T07:28:05.650Z,100058.32
2023-05-15T07:30:32.500Z,100054.80
2023-05-15T07:32:59.420Z,100055.11
2023-05-15T07:35:26.654Z,100057.67
2023-05-15T07:37:53.839Z,100062.67
2023-05-15T07:40:20.737Z,100060.02
2023-05-15T07:42:47.699Z,100056.23
2023-05-15T07:45:14.568Z,100054.75
2023-05-15T07:47:50.711Z,100053.06
2023-05-15T07:50:17.703Z,100052.83
2023-05-15T07:52:44.638Z,100044.16
2023-05-15T07:55:11.671Z,100046.47
2023-05-15T07:57:42.703Z,100039.56
2023-05-15T08:00:13.638Z,100042.20
2023-05-15T08:02:41.302Z,100041.42
2023-05-15T08:05:08.357Z,100045.45
2023-05-15T08:07:35.282Z,100039.19
2023-05-15T08:10:04.289Z,100039.45
2023-05-15T08:12:31.189Z,100032.29
2023-05-15T08:14:58.056Z,100034.04
2023-05-15T08:17:25.031Z,100034.09
2023-05-15T08:19:52.331Z,100041.33
2023-05-15T08:22:19.237Z,100044.59
2023-05-15T08:24:46.031Z,100051.27
2023-05-15T08:27:12.786Z,100052.48
2023-05-15T08:29:40.046Z,100049.95
2023-05-15T08:32:07.785Z,100048.24
2023-05-15T08:34:34.689Z,100041.55
2023-05-15T08:37:01.760Z,100038.23
2023-05-15T08:39:28.899Z,100040.29
2023-05-15T08:42:19.372Z,100040.59
2023-05-15T08:44:46.235Z,100035.68
2023-05-15T08:47:14.448Z,100032.91
2023-05-15T08:50:04.973Z,100029.33
2023-05-15T08:52:32.810Z,100030.50
2023-05-15T08:55:00.157Z,100035.62
2023-05-15T08:57:28.169Z,100032.63
2023-05-15T08:59:55.244Z,100036.01
2023-05-15T09:02:22.650Z,100031.08
2023-05-15T09:04:49.541Z,100026.23
2023-05-15T09:07:17.405Z,100020.90
2023-05-15T09:09:47.505Z,100019.05
2023-05-15T09:12:17.457Z,100019.77
2023-05-15T09:14:44.326Z,100016.15
2023-05-15T09:17:11.936Z,100013.38
2023-05-15T09:19:40.030Z,100014.23
2023-05-15T09:22:26.156Z,100016.62
2023-05-15T09:24:58.170Z,100011.23
2023-05-15T09:27:25.042Z,100013.39
2023-05-15T09:29:54.428Z,100008.81
2023-05-15T09:32:21.479Z,99998.02
2023-05-15T09:34:54.775Z,100005.10
2023-05-15T09:37:32.058Z,100005.97
2023-05-15T09:40:11.851Z,100002.84
2023-05-15T09:42:38.871Z,100003.61
2023-05-15T09:45:06.752Z,100005.71
2023-05-15T09:47:34.025Z,100010.86
2023-05-15T09:50:01.384Z,100011.77
2023-05-15T09:52:28.931Z,100009.52
2023-05-15T09:54:56.566Z,100006.61
2023-05-15T09:57:23.550Z,100005.80
2023-05-15T09:59:50.462Z,99999.46
2023-05-15T10:02:24.813Z,99994.61
2023-05-15T10:04:56.609Z,99994.83
2023-05-15T10:07:36.389Z,99992.11
2023-05-15T10:10:04.614Z,99987.44
2023-05-15T10:12:32.364Z,99984.34
2023-05-15T10:15:00.206Z,99984.90
2023-05-15T10:17:28.556Z,99982.71
2023-05-15T10:19:58.362Z,99987.52
2023-05-15T10:22:29.126Z,99988.23
2023-05-15T10:25:43.744Z,99982.76
2023-05-15T10:28:11.345Z,99984.65
2023-05-15T10:30:38.576Z,99983.19
2023-05-15T10:33:06.750Z,99978.45
2023-05-15T10:35:38.195Z,99978.00
2023-05-15T10:38:05.633Z,99977.71
2023-05-15T10:40:33.442Z,99979.53
2023-05-15T10:43:03.199Z,99974.87
2023-05-15T10:45:30.292Z,99969.14
2023-05-15T10:47:57.187Z,99960.29
2023-05-15T10:50:24.139Z,99953.20
2023-05-15T10:52:52.015Z,99945.39
2023-05-15T10:55:18.925Z,99946.80
2023-05-15T10:57:47.040Z,99942.05
2023-05-15T11:00:31.723Z,99940.54
2023-05-15T11:03:07.381Z,99945.14
2023-05-15T11:06:09.785Z,99943.23
2023-05-15T11:08:37.878Z,99946.89
2023-05-15T11:11:05.247Z,99940.70
2023-05-15T11:15:12.559Z,99933.98
2023-05-15T11:17:39.625Z,99928.11
2023-05-15T11:20:07.250Z,99929.70
2023-05-15T11:22:38.812Z,99919.25
2023-05-15T11:25:16.140Z,99916.10
2023-05-15T11:27:44.681Z,99912.76
2023-05-15T11:30:20.926Z,99912.45
2023-05-15T11:32:47.801Z,99912.10
2023-05-15T11:35:25.252Z,99914.67
2023-05-15T11:37:54.440Z,99916.52
2023-05-15T11:40:26.661Z,99915.02
2023-05-15T11:43:07.711Z,99913.73
2023-05-15T11:45:38.878Z,99911.23
2023-05-15T11:48:07.564Z,99903.10
2023-05-15T11:50:35.446Z,99900.73
2023-05-15T11:53:04.667Z,99900.33
2023-05-15T11:55:32.924Z,99901.27
2023-05-15T11:58:00.883Z,99893.45
2023-05-15T12:00:27.892Z,99890.02
2023-05-15T12:02:54.896Z,99886.34
2023-05-15T12:05:22.361Z,99888.77
2023-05-15T12:07:49.281Z,99883.56
2023-05-15T12:10:16.121Z,99884.05
2023-05-15T12:12:43.728Z,99885.48
2023-05-15T12:15:12.157Z,99877.04
2023-05-15T12:17:40.232Z,99869.66
2023-05-15T12:20:17.964Z,99873.92
2023-05-15T12:22:45.301Z,99866.61
2023-05-15T12:25:12.801Z,99867.48
2023-05-15T12:27:40.152Z,99864.90
2023-05-15T12:30:07.792Z,99868.86
2023-05-15T12:32:36.341Z,99863.73
2023-05-15T12:35:05.093Z,99870.84
2023-05-15T12:37:33.926Z,99870.48
2023-05-15T12:40:02.442Z,99880.63
2023-05-15T12:42:29.372Z,99871.05
2023-05-15T12:44:58.043Z,99872.64
2023-05-15T12:47:28.351Z,99865.60
2023-05-15T12:49:56.869Z,99862.27
2023-05-15T12:52:23.917Z,99859.39
2023-05-15T12:54:50.909Z,99863.35
2023-05-15T12:57:17.736Z,99856.48
2023-05-15T12:59:44.620Z,99859.23
2023-05-15T13:02:12.251Z,99865.27
2023-05-15T13:04:39.461Z,99859.83
2023-05-15T13:07:06.665Z,99866.38
2023-05-15T13:09:35.411Z,99872.29
2023-05-15T13:12:03.807Z,99875.08
2023-05-15T13:14:34.559Z,99873.71
2023-05-15T13:17:03.022Z,99870.16
2023-05-15T13:19:29.898Z,99867.09
2023-05-15T13:21:57.731Z,99864.60
2023-05-15T13:24:24.536Z,99864.33
2023-05-15T13:26:52.741Z,99865.17
2023-05-15T13:29:19.853Z,99856.58
2023-05-15T13:31:47.073Z,99855.63
2023-05-15T13:34:14.151Z,99852.64
2023-05-15T13:36:41.161Z,99859.77
2023-05-15T13:39:08.162Z,99859.61
2023-05-15T13:41:36.841Z,99861.64
2023-05-15T13:44:03.834Z,99852.34
2023-05-15T13:46:30.711Z,99846.94
2023-05-15T13:48:57.616Z,99840.40
2023-05-15T13:51:24.532Z,99835.71
2023-05-15T13:53:51.414Z,99818.98
2023-05-15T13:56:18.438Z,99824.77
2023-05-15T13:58:45.653Z,99826.83
2023-05-15T14:01:12.604Z,99822.16
2023-05-15T14:03:39.719Z,99822.59
2023-05-15T14:06:07.165Z,99814.38
2023-05-15T14:08:34.013Z,99817.65
2023-05-15T14:11:01.587Z,99822.88
2023-05-15T14:13:31.776Z,99821.02
2023-05-15T14:15:58.815Z,99818.23
2023-05-15T14:18:26.299Z,99815.20
2023-05-15T14:20:53.192Z,99805.76
2023-05-15T14:23:20.091Z,99814.92
2023-05-15T14:25:46.890Z,99817.33
2023-05-15T14:28:13.888Z,99814.65
2023-05-15T14:30:40.667Z,99810.80
2023-05-15T14:33:07.603Z,99804.84
2023-05-15T14:35:34.564Z,99808.67
2023-05-15T14:38:01.504Z,99812.48
2023-05-15T14:40:28.365Z,99810.66
2023-05-15T14:42:55.301Z,99809.65
2023-05-15T14:45:22.356Z,99805.63
2023-05-15T14:47:49.209Z,99808.52
2023-05-15T14:50:16.286Z,99804.59
2023-05-15T14:52:43.087Z,99797.84
2023-05-15T14:55:10.286Z,99794.61
2023-05-15T14:57:37.936Z,99790.54
2023-05-15T15:00:06.756Z,99788.90
2023-05-15T15:02:34.233Z,99787.98
2023-05-15T15:05:01.171Z,99788.56
2023-05-15T15:07:29.625Z,99787.95
2023-05-15T15:09:56.411Z,99786.95
2023-05-15T15:12:23.318Z,99782.78
2023-05-15T15:14:50.253Z,99778.98
2023-05-15T15:17:17.231Z,99776.19
2023-05-15T15:19:44.177Z,99778.70
2023-05-15T15:22:11.226Z,99779.92
2023-05-15T15:24:38.153Z,99774.73
2023-05-15T15:27:05.444Z,99770.11
2023-05-15T15:29:32.369Z,99775.48
2023-05-15T15:31:59.186Z,99782.38
2023-05-15T15:34:26.962Z,99780.06
2023-05-15T15:36:53.753Z,99783.71
2023-05-15T15:39:21.090Z,99783.30
2023-05-15T15:41:47.976Z,99783.36
2023-05-15T15:44:14.977Z,99782.27
2023-05-15T15:46:41.874Z,99783.05
2023-05-15T15:49:08.777Z,99784.80
2023-05-15T15:51:35.605Z,99786.48
2023-05-15T15:54:02.475Z,99783.80
2023-05-15T15:56:29.370Z,99783.96
2023-05-15T15:58:56.166Z,99784.04
2023-05-15T16:01:23.458Z,99781.49
2023-05-15T16:03:50.419Z,99785.97
2023-05-15T16:06:17.384Z,99788.38
2023-05-15T16:08:44.334Z,99787.18
2023-05-15T16:11:11.178Z,99788.69
2023-05-15T16:13:40.298Z,99788.84
2023-05-15T16:16:08.150Z,99783.88
2023-05-15T16:18:35.455Z,99783.85
2023-05-15T16:21:02.397Z,99783.25
2023-05-15T16:23:32.968Z,99781.52
2023-05-15T16:25:59.768Z,99785.90
2023-05-15T16:28:26.708Z,99783.04
2023-05-15T16:30:53.647Z,99783.25
2023-05-15T16:33:20.885Z,99787.61
2023-05-15T16:35:47.826Z,99781.55
2023-05-15T16:38:14.775Z,99776.41
2023-05-15T16:40:41.817Z,99779.50
2023-05-15T16:43:09.097Z,99777.66
2023-05-15T16:45:35.888Z,99774.92
2023-05-15T16:48:02.815Z,99776.26
2023-05-15T16:50:31.693Z,99779.28
2023-05-15T16:52:59.060Z,99777.63
2023-05-15T16:55:26.087Z,99778.75
2023-05-15T16:57:52.960Z,99780.05
2023-05-15T17:00:21.183Z,99778.09
2023-05-15T17:02:48.760Z,99782.85
2023-05-15T17:05:15.844Z,99784.39
2023-05-15T17:07:43.364Z,99787.93
2023-05-15T17:10:11.413Z,99790.59
2023-05-15T17:12:38.369Z,99793.52
2023-05-15T17:15:06.280Z,99797.66
2023-05-15T17:17:33.214Z,99800.87
2023-05-15T17:20:02.414Z,99798.50
2023-05-15T17:22:29.876Z,99797.69
2023-05-15T17:24:57.137Z,99795.79
2023-05-15T17:27:24.657Z,99796.88
2023-05-15T17:29:51.564Z,99796.61
2023-05-15T17:32:18.989Z,99799.44
2023-05-15T17:34:46.336Z,99802.42
2023-05-15T17:37:13.131Z,99806.82
2023-05-15T17:39:40.090Z,99816.27
2023-05-15T17:42:06.960Z,99819.48
2023-05-15T17:44:33.837Z,99821.52
2023-05-15T17:47:00.920Z,99822.33
2023-05-15T17:49:28.069Z,99821.71
2023-05-15T17:51:54.845Z,99823.59
2023-05-15T17:54:21.759Z,99823.27
2023-05-15T17:56:48.725Z,99827.80
2023-05-15T17:59:16.283Z,99831.11
2023-05-15T18:01:43.268Z,99833.54
2023-05-15T18:04:10.797Z,99839.34
2023-05-15T18:06:38.100Z,99842.30
2023-05-15T18:09:05.302Z,99838.62
2023-05-15T18:11:32.435Z,99839.30
2023-05-15T18:13:59.447Z,99846.70
2023-05-15T18:16:26.542Z,99847.59
2023-05-15T18:18:53.733Z,99851.84
2023-05-15T18:21:20.851Z,99850.70
2023-05-15T18:23:47.683Z,99855.01
2023-05-15T18:26:14.533Z,99852.66
2023-05-15T18:28:41.432Z,99856.36
2023-05-15T18:31:08.501Z,99858.61
2023-05-15T18:33:35.530Z,99858.52
2023-05-15T18:36:03.150Z,99858.05
2023-05-15T18:38:31.052Z,99861.34
2023-05-15T18:40:57.878Z,99866.36
2023-05-15T18:43:24.823Z,99866.92
2023-05-15T18:45:51.685Z,99869.98
2023-05-15T18:48:18.526Z,99870.42
2023-05-15T18:50:45.572Z,99870.37
2023-05-15T18:53:12.479Z,99870.38
2023-05-15T18:55:39.602Z,99867.77
2023-05-15T18:58:06.607Z,99869.39
2023-05-15T19:00:38.652Z,99870.85
2023-05-15T19:03:08.304Z,99867.61
2023-05-15T19:05:35.553Z,99866.39
2023-05-15T19:08:02.931Z,99860.73
2023-05-15T19:10:30.739Z,99867.30
2023-05-15T19:12:57.902Z,99862.75
2023-05-15T19:15:24.913Z,99861.13
2023-05-15T19:17:52.010Z,99864.56
2023-05-15T19:20:19.415Z,99870.61
2023-05-15T19:22:46.450Z,99872.80
2023-05-15T19:25:13.328Z,99876.41
2023-05-15T19:27:40.416Z,99881.59
2023-05-15T19:30:09.324Z,99884.33
2023-05-15T19:32:36.607Z,99889.23
2023-05-15T19:35:03.895Z,99891.27
2023-05-15T19:37:30.677Z,99890.02
2023-05-15T19:39:57.462Z,99890.64
2023-05-15T19:42:24.272Z,99892.00
2023-05-15T19:44:51.156Z,99894.00
2023-05-15T19:47:18.042Z,99900.48
2023-05-15T19:49:45.685Z,99904.75
2023-05-15T19:52:12.556Z,99903.38
2023-05-15T19:54:39.479Z,99909.67
2023-05-15T19:57:06.376Z,99903.91
2023-05-15T19:59:33.171Z,99907.14
2023-05-15T20:02:01.700Z,99908.83
2023-05-15T20:04:29.127Z,99912.92
2023-05-15T20:06:55.970Z,99913.81
2023-05-15T20:09:22.725Z,99913.17
2023-05-15T20:11:49.646Z,99916.43
2023-05-15T20:14:16.794Z,99918.23
2023-05-15T20:16:43.736Z,99918.81
2023-05-15T20:19:11.222Z,99920.81
2023-05-15T20:21:38.907Z,99923.73
2023-05-15T20:24:07.134Z,99924.58
2023-05-15T20:26:36.134Z,99929.79
2023-05-15T20:29:03.816Z,99930.44
2023-05-15T20:31:30.943Z,99926.15
2023-05-15T20:33:59.252Z,99926.71
2023-05-15T20:36:26.228Z,99931.50
2023-05-15T20:38:53.253Z,99927.79
2023-05-15T20:41:22.831Z,99928.58
2023-05-15T20:43:50.027Z,99928.17
2023-05-15T20:46:17.188Z,99925.98
2023-05-15T20:48:44.350Z,99920.17
2023-05-15T20:51:11.246Z,99919.33
2023-05-15T20:53:38.028Z,99922.20
2023-05-15T20:56:05.033Z,99919.64
2023-05-15T20:58:31.854Z,99921.58
2023-05-15T21:01:01.259Z,99928.67
2023-05-15T21:03:29.204Z,99927.52
2023-05-15T21:05:57.540Z,99925.50
2023-05-15T21:08:24.934Z,99924.56
2023-05-15T21:10:55.516Z,99918.60
2023-05-15T21:13:22.482Z,99915.64
2023-05-15T21:15:49.286Z,99914.49
2023-05-15T21:18:16.380Z,99919.83
2023-05-15T21:20:43.296Z,99917.60
2023-05-15T21:23:10.074Z,99918.10
2023-05-15T21:25:37.842Z,99921.09
2023-05-15T21:28:04.816Z,99927.23
2023-05-15T21:30:31.812Z,99928.33
2023-05-15T21:32:59.383Z,99930.54
2023-05-15T21:35:29.055Z,99933.78
2023-05-15T21:37:56.115Z,99929.98
2023-05-15T21:40:23.070Z,99926.82
2023-05-15T21:42:50.127Z,99931.75
2023-05-15T21:45:17.540Z,99930.03
2023-05-15T21:47:44.396Z,99933.05
2023-05-15T21:50:11.524Z,99934.06
2023-05-15T21:52:38.365Z,99931.30
2023-05-15T21:55:06.001Z,99931.63
2023-05-15T21:57:33.150Z,99934.84
2023-05-15T22:00:00.221Z,99928.91
2023-05-15T22:02:27.231Z,99926.10
2023-05-15T22:04:54.592Z,99926.35
2023-05-15T22:07:21.901Z,99927.25
2023-05-15T22:09:48.887Z,99925.13
2023-05-15T22:12:15.807Z,99924.77
2023-05-15T22:14:54.464Z,99926.41
2023-05-15T22:17:26.558Z,99921.38
2023-05-15T22:19:53.681Z,99919.90
2023-05-15T22:22:20.999Z,99921.09
2023-05-15T22:24:48.275Z,99925.84
2023-05-15T22:27:16.877Z,99929.90
2023-05-15T22:29:43.980Z,99930.28
2023-05-15T22:32:10.918Z,99929.92
2023-05-15T22:34:37.775Z,99932.98
2023-05-15T22:37:05.159Z,99929.05
2023-05-15T22:39:33.071Z,99923.35
2023-05-15T22:41:59.905Z,99922.70
2023-05-15T22:44:26.765Z,99919.18
2023-05-15T22:46:53.599Z,99912.89
2023-05-15T22:49:25.385Z,99912.06
2023-05-15T22:51:53.675Z,99909.26
2023-05-15T22:54:23.116Z,99909.94
2023-05-15T22:56:51.489Z,99904.29
2023-05-15T22:59:18.664Z,99903.19
2023-05-15T23:01:46.442Z,99904.40
2023-05-15T23:04:13.825Z,99901.52
2023-05-15T23:06:41.228Z,99901.34
2023-05-15T23:09:08.636Z,99899.27
2023-05-15T23:11:35.649Z,99897.52
2023-05-15T23:14:03.156Z,99896.56
2023-05-15T23:16:30.094Z,99891.02
2023-05-15T23:18:57.970Z,99889.30
2023-05-15T23:21:24.994Z,99887.26
2023-05-15T23:23:51.784Z,99884.10
2023-05-15T23:26:18.604Z,99885.05
2023-05-15T23:28:45.395Z,99883.14
2023-05-15T23:33:03.892Z,99878.28
2023-05-15T23:35:30.816Z,99872.01
2023-05-15T23:37:57.619Z,99870.58
2023-05-15T23:40:24.729Z,99865.34
2023-05-15T23:42:51.837Z,99866.64
2023-05-15T23:45:18.727Z,99870.63
2023-05-15T23:47:46.759Z,99870.22
2023-05-15T23:50:13.673Z,99869.41
2023-05-15T23:52:41.055Z,99867.23
2023-05-15T23:55:08.397Z,99868.56
2023-05-15T23:57:35.290Z,99866.34
